Uhland, Texas
Current Conditions -  °F | °C
As of 5:55 AM on Monday 22 Dec 2014 (Local Time) from KHYI Reporting Station
Overcast Overcast  
Wind Chill: 57°   Ceiling: 1700
Heat Index: 57°   Visibility: 8mi
Dew Point: 54°   Wind: 14mph
Humidity: 88%   Direction: 220°SW
Pressure: 29.74"   Gusts: NA
Location:  29.9978°N, 97.835°W
Report Text: KHYI 221155Z 22012KT 8SM SCT006 OVC017 14/12 A2974 RMK AO1 10140 20130 57020
Loading
Personal Weather Stations






























Interactive Weather Map New forecast layout! Learn more

10-Day Weather Forecast

Advertisements
Track Severe Weather on mobile